Terminal Aerodrome Forecast
Issued by NWS Mt. Holly, NJ

Home | Current Version | Previous Version | Text Only | Print | Product List | Glossary On
Versions: 1 2 3 4 5 6 7 8 9 10 11 12 13 14 15 16 17 18
000
FTUS41 KPHI 210520
TAFTTN
TAF
KTTN 210520Z 2106/2206 VRB04KT P6SM SKC
     FM211500 23004KT P6SM FEW050 FEW250
     FM211800 23007KT P6SM SCT050 SCT250
     FM220000 22005KT P6SM SCT060 BKN250=

USA.gov is the U.S. government's official web portal to all federal, state and local government web resources and services.